sensor_id;sensor_type;location;lat;lon;timestamp;pressure;altitude;pressure_sealevel;temperature;humidity
13968;BME280;39536;52.198;9.920;2023-07-31T00:01:18;100141.50;;;18.36;100.00
13968;BME280;39536;52.198;9.920;2023-07-31T00:03:45;100132.06;;;18.08;100.00
13968;BME280;39536;52.198;9.920;2023-07-31T00:06:13;100125.50;;;18.13;100.00
13968;BME280;39536;52.198;9.920;2023-07-31T00:08:40;100122.66;;;18.16;100.00
13968;BME280;39536;52.198;9.920;2023-07-31T00:11:06;100118.28;;;18.28;100.00
13968;BME280;39536;52.198;9.920;2023-07-31T00:13:33;100119.78;;;18.32;100.00
13968;BME280;39536;52.198;9.920;2023-07-31T00:16:00;100121.44;;;18.33;100.00
13968;BME280;39536;52.198;9.920;2023-07-31T00:18:26;100122.31;;;18.21;100.00
13968;BME280;39536;52.198;9.920;2023-07-31T00:20:53;100121.78;;;18.29;100.00
13968;BME280;39536;52.198;9.920;2023-07-31T00:23:21;100118.69;;;18.35;100.00
13968;BME280;39536;52.198;9.920;2023-07-31T00:25:48;100118.59;;;18.36;100.00
13968;BME280;39536;52.198;9.920;2023-07-31T00:28:14;100113.34;;;18.23;100.00
13968;BME280;39536;52.198;9.920;2023-07-31T00:30:41;100113.88;;;18.29;100.00
13968;BME280;39536;52.198;9.920;2023-07-31T00:33:08;100107.66;;;18.30;100.00
13968;BME280;39536;52.198;9.920;2023-07-31T00:35:34;100107.88;;;18.27;100.00
13968;BME280;39536;52.198;9.920;2023-07-31T00:38:01;100108.59;;;18.29;100.00
13968;BME280;39536;52.198;9.920;2023-07-31T00:40:29;100104.56;;;18.36;100.00
13968;BME280;39536;52.198;9.920;2023-07-31T00:42:55;100110.16;;;18.31;100.00
13968;BME280;39536;52.198;9.920;2023-07-31T00:45:23;100101.09;;;18.35;100.00
13968;BME280;39536;52.198;9.920;2023-07-31T00:47:52;100101.81;;;18.37;100.00
13968;BME280;39536;52.198;9.920;2023-07-31T00:50:19;100099.56;;;18.44;100.00
13968;BME280;39536;52.198;9.920;2023-07-31T00:52:45;100097.66;;;18.46;100.00
13968;BME280;39536;52.198;9.920;2023-07-31T00:55:12;100099.34;;;18.47;100.00
13968;BME280;39536;52.198;9.920;2023-07-31T00:57:41;100088.31;;;18.42;100.00
13968;BME280;39536;52.198;9.920;2023-07-31T01:00:08;100096.81;;;18.45;100.00
13968;BME280;39536;52.198;9.920;2023-07-31T01:02:36;100091.56;;;18.45;100.00
13968;BME280;39536;52.198;9.920;2023-07-31T01:05:03;100086.38;;;18.44;100.00
13968;BME280;39536;52.198;9.920;2023-07-31T01:07:35;100084.19;;;18.38;100.00
13968;BME280;39536;52.198;9.920;2023-07-31T01:10:08;100080.84;;;18.36;100.00
13968;BME280;39536;52.198;9.920;2023-07-31T01:12:39;100088.13;;;18.32;100.00
13968;BME280;39536;52.198;9.920;2023-07-31T01:15:08;100085.44;;;18.08;100.00
13968;BME280;39536;52.198;9.920;2023-07-31T01:17:36;100073.13;;;17.96;100.00
13968;BME280;39536;52.198;9.920;2023-07-31T01:20:05;100074.19;;;17.93;100.00
13968;BME280;39536;52.198;9.920;2023-07-31T01:23:06;100067.34;;;17.91;100.00
13968;BME280;39536;52.198;9.920;2023-07-31T01:25:56;100060.72;;;17.85;100.00
13968;BME280;39536;52.198;9.920;2023-07-31T01:28:40;100047.44;;;17.74;100.00
13968;BME280;39536;52.198;9.920;2023-07-31T01:31:16;100043.34;;;17.57;100.00
13968;BME280;39536;52.198;9.920;2023-07-31T01:33:43;100043.44;;;17.55;100.00
13968;BME280;39536;52.198;9.920;2023-07-31T01:36:11;100041.16;;;17.51;100.00
13968;BME280;39536;52.198;9.920;2023-07-31T01:38:38;100039.66;;;17.47;100.00
13968;BME280;39536;52.198;9.920;2023-07-31T01:41:06;100043.03;;;17.36;100.00
13968;BME280;39536;52.198;9.920;2023-07-31T01:43:32;100039.03;;;17.30;100.00
13968;BME280;39536;52.198;9.920;2023-07-31T01:45:59;100031.03;;;17.32;100.00
13968;BME280;39536;52.198;9.920;2023-07-31T01:48:26;100025.78;;;17.32;100.00
13968;BME280;39536;52.198;9.920;2023-07-31T01:50:52;100028.81;;;17.26;100.00
13968;BME280;39536;52.198;9.920;2023-07-31T01:53:19;100028.16;;;17.22;100.00
13968;BME280;39536;52.198;9.920;2023-07-31T01:55:46;100020.19;;;17.11;100.00
13968;BME280;39536;52.198;9.920;2023-07-31T01:58:14;100016.72;;;17.11;100.00
13968;BME280;39536;52.198;9.920;2023-07-31T02:00:40;100006.47;;;17.06;100.00
13968;BME280;39536;52.198;9.920;2023-07-31T02:03:07;100014.78;;;17.00;100.00
13968;BME280;39536;52.198;9.920;2023-07-31T02:05:33;100019.34;;;17.11;100.00
13968;BME280;39536;52.198;9.920;2023-07-31T02:08:00;100009.03;;;17.20;100.00
13968;BME280;39536;52.198;9.920;2023-07-31T02:10:27;100011.53;;;17.22;100.00
13968;BME280;39536;52.198;9.920;2023-07-31T02:12:53;100013.53;;;17.31;100.00
13968;BME280;39536;52.198;9.920;2023-07-31T02:15:21;100011.44;;;17.36;100.00
13968;BME280;39536;52.198;9.920;2023-07-31T02:17:48;100012.38;;;17.35;100.00
13968;BME280;39536;52.198;9.920;2023-07-31T02:20:15;100006.47;;;17.31;100.00
13968;BME280;39536;52.198;9.920;2023-07-31T02:22:41;100000.28;;;17.33;100.00
13968;BME280;39536;52.198;9.920;2023-07-31T02:25:08;99985.13;;;17.36;100.00
13968;BME280;39536;52.198;9.920;2023-07-31T02:27:34;99991.63;;;17.30;100.00
13968;BME280;39536;52.198;9.920;2023-07-31T02:30:01;99980.69;;;17.37;100.00
13968;BME280;39536;52.198;9.920;2023-07-31T02:32:29;99982.56;;;17.35;100.00
13968;BME280;39536;52.198;9.920;2023-07-31T02:34:56;99978.56;;;17.16;100.00
13968;BME280;39536;52.198;9.920;2023-07-31T02:37:23;99987.84;;;17.22;100.00
13968;BME280;39536;52.198;9.920;2023-07-31T02:39:49;99984.28;;;17.23;100.00
13968;BME280;39536;52.198;9.920;2023-07-31T02:42:16;99987.97;;;17.33;100.00
13968;BME280;39536;52.198;9.920;2023-07-31T02:44:42;99987.75;;;17.36;100.00
13968;BME280;39536;52.198;9.920;2023-07-31T02:47:09;99987.63;;;17.38;100.00
13968;BME280;39536;52.198;9.920;2023-07-31T02:49:37;99983.09;;;17.40;100.00
13968;BME280;39536;52.198;9.920;2023-07-31T02:52:04;99986.56;;;17.40;100.00
13968;BME280;39536;52.198;9.920;2023-07-31T02:54:31;99981.94;;;17.44;100.00
13968;BME280;39536;52.198;9.920;2023-07-31T02:56:57;99978.03;;;17.49;100.00
13968;BME280;39536;52.198;9.920;2023-07-31T02:59:24;99981.50;;;17.50;100.00
13968;BME280;39536;52.198;9.920;2023-07-31T03:01:51;99982.16;;;17.41;100.00
13968;BME280;39536;52.198;9.920;2023-07-31T03:04:18;99979.91;;;17.47;100.00
13968;BME280;39536;52.198;9.920;2023-07-31T03:06:46;99977.59;;;17.55;100.00
13968;BME280;39536;52.198;9.920;2023-07-31T03:09:12;99984.97;;;17.50;100.00
13968;BME280;39536;52.198;9.920;2023-07-31T03:11:39;99979.91;;;17.47;100.00
13968;BME280;39536;52.198;9.920;2023-07-31T03:14:06;99983.94;;;17.40;100.00
13968;BME280;39536;52.198;9.920;2023-07-31T03:16:32;99988.16;;;17.43;100.00
13968;BME280;39536;52.198;9.920;2023-07-31T03:18:59;99974.47;;;17.38;100.00
13968;BME280;39536;52.198;9.920;2023-07-31T03:21:26;99969.09;;;17.39;100.00
13968;BME280;39536;52.198;9.920;2023-07-31T03:23:54;99973.75;;;17.36;100.00
13968;BME280;39536;52.198;9.920;2023-07-31T03:26:20;99982.56;;;17.35;100.00
13968;BME280;39536;52.198;9.920;2023-07-31T03:28:47;99985.53;;;17.30;100.00
13968;BME280;39536;52.198;9.920;2023-07-31T03:31:14;99982.47;;;17.36;100.00
13968;BME280;39536;52.198;9.920;2023-07-31T03:33:41;99981.13;;;17.30;100.00
13968;BME280;39536;52.198;9.920;2023-07-31T03:36:08;99988.69;;;17.35;100.00
13968;BME280;39536;52.198;9.920;2023-07-31T03:38:35;99993.13;;;17.22;100.00
13968;BME280;39536;52.198;9.920;2023-07-31T03:41:03;99992.59;;;17.17;100.00
13968;BME280;39536;52.198;9.920;2023-07-31T03:43:31;99995.13;;;17.18;100.00
13968;BME280;39536;52.198;9.920;2023-07-31T03:45:59;99991.22;;;17.11;100.00
13968;BME280;39536;52.198;9.920;2023-07-31T03:48:25;99996.91;;;17.05;100.00
13968;BME280;39536;52.198;9.920;2023-07-31T03:50:52;100003.75;;;16.95;100.00
13968;BME280;39536;52.198;9.920;2023-07-31T03:53:19;100002.19;;;17.05;100.00
13968;BME280;39536;52.198;9.920;2023-07-31T03:55:45;100001.97;;;17.08;100.00
13968;BME280;39536;52.198;9.920;2023-07-31T03:58:13;99993.13;;;17.22;100.00
13968;BME280;39536;52.198;9.920;2023-07-31T04:00:40;99992.69;;;17.15;100.00
13968;BME280;39536;52.198;9.920;2023-07-31T04:03:07;99999.63;;;17.16;100.00
13968;BME280;39536;52.198;9.920;2023-07-31T04:05:38;99994.59;;;17.13;100.00
13968;BME280;39536;52.198;9.920;2023-07-31T04:08:04;99988.47;;;17.00;100.00
13968;BME280;39536;52.198;9.920;2023-07-31T04:10:31;99989.66;;;16.96;100.00
13968;BME280;39536;52.198;9.920;2023-07-31T04:12:58;99989.50;;;16.84;100.00
13968;BME280;39536;52.198;9.920;2023-07-31T04:15:26;99982.38;;;16.87;100.00
13968;BME280;39536;52.198;9.920;2023-07-31T04:17:53;99991.66;;;16.92;100.00
13968;BME280;39536;52.198;9.920;2023-07-31T04:20:20;99989.09;;;16.91;100.00
13968;BME280;39536;52.198;9.920;2023-07-31T04:22:46;99978.38;;;16.94;100.00
13968;BME280;39536;52.198;9.920;2023-07-31T04:25:13;99976.91;;;16.90;100.00
13968;BME280;39536;52.198;9.920;2023-07-31T04:27:40;99978.16;;;16.97;100.00
13968;BME280;39536;52.198;9.920;2023-07-31T04:30:07;99979.22;;;17.07;100.00
13968;BME280;39536;52.198;9.920;2023-07-31T04:32:35;99975.03;;;17.04;100.00
13968;BME280;39536;52.198;9.920;2023-07-31T04:35:02;99972.81;;;17.11;100.00
13968;BME280;39536;52.198;9.920;2023-07-31T04:37:29;99971.09;;;16.97;100.00
13968;BME280;39536;52.198;9.920;2023-07-31T04:39:56;99968.19;;;17.02;100.00
13968;BME280;39536;52.198;9.920;2023-07-31T04:42:22;99964.28;;;17.07;100.00
13968;BME280;39536;52.198;9.920;2023-07-31T04:44:49;99971.00;;;17.12;100.00
13968;BME280;39536;52.198;9.920;2023-07-31T04:47:16;99974.28;;;17.15;100.00
13968;BME280;39536;52.198;9.920;2023-07-31T04:49:44;99971.97;;;17.11;100.00
13968;BME280;39536;52.198;9.920;2023-07-31T04:52:10;99958.06;;;16.96;100.00
13968;BME280;39536;52.198;9.920;2023-07-31T04:54:37;99963.41;;;16.94;100.00
13968;BME280;39536;52.198;9.920;2023-07-31T04:57:04;99962.06;;;17.01;100.00
13968;BME280;39536;52.198;9.920;2023-07-31T04:59:31;99958.28;;;17.05;100.00
13968;BME280;39536;52.198;9.920;2023-07-31T05:01:58;99955.53;;;17.07;100.00
13968;BME280;39536;52.198;9.920;2023-07-31T05:04:25;99952.28;;;17.03;100.00
13968;BME280;39536;52.198;9.920;2023-07-31T05:06:53;99953.09;;;16.91;100.00
13968;BME280;39536;52.198;9.920;2023-07-31T05:09:19;99967.97;;;16.79;100.00
13968;BME280;39536;52.198;9.920;2023-07-31T05:11:46;99953.09;;;16.91;100.00
13968;BME280;39536;52.198;9.920;2023-07-31T05:14:13;99949.63;;;16.78;100.00
13968;BME280;39536;52.198;9.920;2023-07-31T05:16:41;99953.09;;;16.91;100.00
13968;BME280;39536;52.198;9.920;2023-07-31T05:19:08;99941.53;;;16.94;100.00
13968;BME280;39536;52.198;9.920;2023-07-31T05:21:34;99946.19;;;16.90;100.00
13968;BME280;39536;52.198;9.920;2023-07-31T05:24:03;99953.00;;;16.80;100.00
13968;BME280;39536;52.198;9.920;2023-07-31T05:26:29;99950.91;;;16.85;100.00
13968;BME280;39536;52.198;9.920;2023-07-31T05:28:59;99948.06;;;16.75;100.00
13968;BME280;39536;52.198;9.920;2023-07-31T05:31:26;99940.38;;;16.85;100.00
13968;BME280;39536;52.198;9.920;2023-07-31T05:33:52;99947.31;;;16.73;100.00
13968;BME280;39536;52.198;9.920;2023-07-31T05:36:19;99953.09;;;16.78;100.00
13968;BME280;39536;52.198;9.920;2023-07-31T05:38:46;99949.81;;;16.75;100.00
13968;BME280;39536;52.198;9.920;2023-07-31T05:41:14;99949.75;;;16.76;100.00
13968;BME280;39536;52.198;9.920;2023-07-31T05:43:40;99945.34;;;16.77;100.00
13968;BME280;39536;52.198;9.920;2023-07-31T05:46:08;99948.19;;;16.87;100.00
13968;BME280;39536;52.198;9.920;2023-07-31T05:48:35;99943.44;;;16.92;100.00
13968;BME280;39536;52.198;9.920;2023-07-31T05:51:01;99938.91;;;16.81;100.00
13968;BME280;39536;52.198;9.920;2023-07-31T05:53:28;99942.38;;;16.94;100.00
13968;BME280;39536;52.198;9.920;2023-07-31T05:55:55;99943.34;;;16.93;100.00
13968;BME280;39536;52.198;9.920;2023-07-31T05:58:23;99948.06;;;16.88;100.00
13968;BME280;39536;52.198;9.920;2023-07-31T06:00:50;99943.22;;;16.82;100.00
13968;BME280;39536;52.198;9.920;2023-07-31T06:03:16;99945.34;;;16.90;100.00
13968;BME280;39536;52.198;9.920;2023-07-31T06:05:43;99938.91;;;16.94;100.00
13968;BME280;39536;52.198;9.920;2023-07-31T06:08:10;99930.28;;;16.92;100.00
13968;BME280;39536;52.198;9.920;2023-07-31T06:10:36;99929.63;;;16.88;100.00
13968;BME280;39536;52.198;9.920;2023-07-31T06:13:03;99931.66;;;16.84;100.00
13968;BME280;39536;52.198;9.920;2023-07-31T06:15:31;99931.00;;;16.94;100.00
13968;BME280;39536;52.198;9.920;2023-07-31T06:17:58;99931.34;;;17.02;100.00
13968;BME280;39536;52.198;9.920;2023-07-31T06:20:27;99932.06;;;17.04;100.00
13968;BME280;39536;52.198;9.920;2023-07-31T06:22:54;99934.59;;;17.05;100.00
13968;BME280;39536;52.198;9.920;2023-07-31T06:25:20;99939.72;;;17.07;100.00
13968;BME280;39536;52.198;9.920;2023-07-31T06:27:47;99940.19;;;17.01;100.00
13968;BME280;39536;52.198;9.920;2023-07-31T06:30:14;99932.06;;;16.91;100.00
13968;BME280;39536;52.198;9.920;2023-07-31T06:32:42;99936.19;;;16.95;100.00
13968;BME280;39536;52.198;9.920;2023-07-31T06:35:08;99942.59;;;16.91;100.00
13968;BME280;39536;52.198;9.920;2023-07-31T06:37:35;99938.69;;;16.84;100.00
13968;BME280;39536;52.198;9.920;2023-07-31T06:40:03;99953.94;;;16.79;100.00
13968;BME280;39536;52.198;9.920;2023-07-31T06:42:30;99935.31;;;16.82;100.00
13968;BME280;39536;52.198;9.920;2023-07-31T06:44:57;99937.13;;;16.81;100.00
13968;BME280;39536;52.198;9.920;2023-07-31T06:47:24;99932.06;;;16.91;100.00
13968;BME280;39536;52.198;9.920;2023-07-31T06:49:52;99939.13;;;16.91;100.00
13968;BME280;39536;52.198;9.920;2023-07-31T06:52:18;99933.97;;;16.89;100.00
13968;BME280;39536;52.198;9.920;2023-07-31T06:55:00;99934.28;;;16.84;100.00
13968;BME280;39536;52.198;9.920;2023-07-31T06:57:27;99929.34;;;16.80;100.00
13968;BME280;39536;52.198;9.920;2023-07-31T06:59:53;99951.13;;;16.95;100.00
13968;BME280;39536;52.198;9.920;2023-07-31T07:02:20;99934.81;;;16.90;100.00
13968;BME280;39536;52.198;9.920;2023-07-31T07:04:47;99927.47;;;16.95;100.00
13968;BME280;39536;52.198;9.920;2023-07-31T07:07:15;99932.28;;;16.88;100.00
13968;BME280;39536;52.198;9.920;2023-07-31T07:09:41;99928.72;;;17.02;100.00
13968;BME280;39536;52.198;9.920;2023-07-31T07:12:08;99927.31;;;17.09;100.00
13968;BME280;39536;52.198;9.920;2023-07-31T07:14:35;99925.97;;;17.03;100.00
13968;BME280;39536;52.198;9.920;2023-07-31T07:17:01;99923.53;;;17.00;100.00
13968;BME280;39536;52.198;9.920;2023-07-31T07:19:29;99915.22;;;16.94;100.00
13968;BME280;39536;52.198;9.920;2023-07-31T07:21:55;99918.06;;;16.91;100.00
13968;BME280;39536;52.198;9.920;2023-07-31T07:24:23;99916.81;;;17.09;100.00
13968;BME280;39536;52.198;9.920;2023-07-31T07:26:50;99916.91;;;17.07;100.00
13968;BME280;39536;52.198;9.920;2023-07-31T07:29:16;99927.44;;;17.20;100.00
13968;BME280;39536;52.198;9.920;2023-07-31T07:31:43;99923.53;;;17.26;100.00
13968;BME280;39536;52.198;9.920;2023-07-31T07:34:10;99913.53;;;17.18;100.00
13968;BME280;39536;52.198;9.920;2023-07-31T07:36:37;99908.44;;;17.28;100.00
13968;BME280;39536;52.198;9.920;2023-07-31T07:39:03;99905.59;;;17.31;100.00
13968;BME280;39536;52.198;9.920;2023-07-31T07:41:32;99916.44;;;17.39;100.00
13968;BME280;39536;52.198;9.920;2023-07-31T07:43:58;99925.22;;;17.27;100.00
13968;BME280;39536;52.198;9.920;2023-07-31T07:46:25;99924.06;;;17.18;100.00
13968;BME280;39536;52.198;9.920;2023-07-31T07:48:51;99932.91;;;17.17;100.00
13968;BME280;39536;52.198;9.920;2023-07-31T07:51:18;99934.38;;;17.21;100.00
13968;BME280;39536;52.198;9.920;2023-07-31T07:53:45;99936.25;;;17.32;100.00
13968;BME280;39536;52.198;9.920;2023-07-31T07:56:11;99916.47;;;17.26;100.00
13968;BME280;39536;52.198;9.920;2023-07-31T07:58:39;99936.75;;;17.37;100.00
13968;BME280;39536;52.198;9.920;2023-07-31T08:01:06;99930.84;;;17.46;100.00
13968;BME280;39536;52.198;9.920;2023-07-31T08:03:33;99938.09;;;17.55;100.00
13968;BME280;39536;52.198;9.920;2023-07-31T08:06:00;99931.09;;;17.30;100.00
13968;BME280;39536;52.198;9.920;2023-07-31T08:08:27;99936.69;;;17.26;100.00
13968;BME280;39536;52.198;9.920;2023-07-31T08:10:54;99931.81;;;17.45;100.00
13968;BME280;39536;52.198;9.920;2023-07-31T08:13:20;99927.03;;;17.50;100.00
13968;BME280;39536;52.198;9.920;2023-07-31T08:15:48;99927.97;;;17.62;100.00
13968;BME280;39536;52.198;9.920;2023-07-31T08:18:15;99926.69;;;17.68;100.00
13968;BME280;39536;52.198;9.920;2023-07-31T08:20:42;99926.56;;;17.69;100.00
13968;BME280;39536;52.198;9.920;2023-07-31T08:23:09;99929.84;;;17.73;100.00
13968;BME280;39536;52.198;9.920;2023-07-31T08:25:36;99925.59;;;17.83;100.00
13968;BME280;39536;52.198;9.920;2023-07-31T08:28:04;99927.66;;;17.67;100.00
13968;BME280;39536;52.198;9.920;2023-07-31T08:30:30;99918.66;;;17.69;100.00
13968;BME280;39536;52.198;9.920;2023-07-31T08:33:00;99914.06;;;17.60;100.00
13968;BME280;39536;52.198;9.920;2023-07-31T08:35:26;99921.81;;;17.74;100.00
13968;BME280;39536;52.198;9.920;2023-07-31T08:37:54;99927.09;;;17.74;100.00
13968;BME280;39536;52.198;9.920;2023-07-31T08:40:21;99916.59;;;17.62;100.00
13968;BME280;39536;52.198;9.920;2023-07-31T08:42:52;99909.19;;;17.80;100.00
13968;BME280;39536;52.198;9.920;2023-07-31T08:45:20;99909.06;;;17.68;100.00
13968;BME280;39536;52.198;9.920;2023-07-31T08:47:47;99918.34;;;17.74;100.00
13968;BME280;39536;52.198;9.920;2023-07-31T08:50:17;99907.63;;;17.77;100.00
13968;BME280;39536;52.198;9.920;2023-07-31T08:52:45;99923.22;;;17.67;100.00
13968;BME280;39536;52.198;9.920;2023-07-31T08:55:12;99914.91;;;17.61;100.00
13968;BME280;39536;52.198;9.920;2023-07-31T08:57:39;99912.91;;;17.64;100.00
13968;BME280;39536;52.198;9.920;2023-07-31T09:00:08;99908.38;;;17.53;100.00
13968;BME280;39536;52.198;9.920;2023-07-31T09:02:37;99900.00;;;17.48;100.00
13968;BME280;39536;52.198;9.920;2023-07-31T09:05:06;99895.91;;;17.31;100.00
13968;BME280;39536;52.198;9.920;2023-07-31T09:07:35;99899.28;;;17.34;100.00
13968;BME280;39536;52.198;9.920;2023-07-31T09:10:02;99886.66;;;17.39;100.00
13968;BME280;39536;52.198;9.920;2023-07-31T09:12:29;99891.75;;;17.53;100.00
13968;BME280;39536;52.198;9.920;2023-07-31T09:14:56;99890.16;;;17.50;100.00
13968;BME280;39536;52.198;9.920;2023-07-31T09:17:28;99893.94;;;17.59;100.00
13968;BME280;39536;52.198;9.920;2023-07-31T09:19:56;99895.56;;;17.49;100.00
13968;BME280;39536;52.198;9.920;2023-07-31T09:22:31;99883.53;;;17.58;100.00
13968;BME280;39536;52.198;9.920;2023-07-31T09:25:14;99884.94;;;17.74;100.00
13968;BME280;39536;52.198;9.920;2023-07-31T09:27:48;99883.03;;;17.76;100.00
13968;BME280;39536;52.198;9.920;2023-07-31T09:30:16;99883.91;;;17.77;100.00
13968;BME280;39536;52.198;9.920;2023-07-31T09:32:43;99877.44;;;17.81;100.00
13968;BME280;39536;52.198;9.920;2023-07-31T09:35:18;99871.34;;;17.81;100.00
13968;BME280;39536;52.198;9.920;2023-07-31T09:37:49;99875.41;;;17.85;100.00
13968;BME280;39536;52.198;9.920;2023-07-31T09:40:26;99873.31;;;17.90;100.00
13968;BME280;39536;52.198;9.920;2023-07-31T09:42:55;99880.25;;;17.91;100.00
13968;BME280;39536;52.198;9.920;2023-07-31T09:45:22;99874.53;;;17.97;100.00
13968;BME280;39536;52.198;9.920;2023-07-31T09:47:49;99868.56;;;18.06;100.00
13968;BME280;39536;52.198;9.920;2023-07-31T09:50:16;99864.53;;;18.13;100.00
13968;BME280;39536;52.198;9.920;2023-07-31T09:52:43;99860.19;;;18.12;100.00
13968;BME280;39536;52.198;9.920;2023-07-31T09:55:10;99867.41;;;18.10;100.00
13968;BME280;39536;52.198;9.920;2023-07-31T09:57:39;99859.59;;;18.09;100.00
13968;BME280;39536;52.198;9.920;2023-07-31T10:00:07;99861.69;;;18.16;100.00
13968;BME280;39536;52.198;9.920;2023-07-31T10:02:36;99862.75;;;18.14;100.00
13968;BME280;39536;52.198;9.920;2023-07-31T10:05:05;99850.91;;;18.19;100.00
13968;BME280;39536;52.198;9.920;2023-07-31T10:07:36;99848.41;;;18.29;100.00
13968;BME280;39536;52.198;9.920;2023-07-31T10:10:04;99849.16;;;18.42;100.00
13968;BME280;39536;52.198;9.920;2023-07-31T10:12:32;99850.09;;;18.53;100.00
13968;BME280;39536;52.198;9.920;2023-07-31T10:15:01;99850.09;;;18.53;100.00
13968;BME280;39536;52.198;9.920;2023-07-31T10:17:29;99849.53;;;18.60;100.00
13968;BME280;39536;52.198;9.920;2023-07-31T10:19:56;99837.78;;;18.64;100.00
13968;BME280;39536;52.198;9.920;2023-07-31T10:22:24;99831.91;;;18.72;100.00
13968;BME280;39536;52.198;9.920;2023-07-31T10:24:52;99853.91;;;18.73;100.00
13968;BME280;39536;52.198;9.920;2023-07-31T10:27:20;99840.03;;;18.69;100.00
13968;BME280;39536;52.198;9.920;2023-07-31T10:29:47;99842.94;;;18.55;100.00
13968;BME280;39536;52.198;9.920;2023-07-31T10:32:17;99840.03;;;18.69;100.00
13968;BME280;39536;52.198;9.920;2023-07-31T10:34:43;99834.47;;;18.74;100.00
13968;BME280;39536;52.198;9.920;2023-07-31T10:37:23;99835.44;;;18.73;100.00
13968;BME280;39536;52.198;9.920;2023-07-31T10:39:59;99830.34;;;18.69;100.00
13968;BME280;39536;52.198;9.920;2023-07-31T10:42:33;99819.06;;;18.67;100.00
13968;BME280;39536;52.198;9.920;2023-07-31T10:45:02;99818.25;;;18.89;100.00
13968;BME280;39536;52.198;9.920;2023-07-31T10:47:30;99819.44;;;19.08;100.00
13968;BME280;39536;52.198;9.920;2023-07-31T10:50:21;99816.75;;;19.30;100.00
13968;BME280;39536;52.198;9.920;2023-07-31T10:52:50;99805.44;;;19.51;100.00
13968;BME280;39536;52.198;9.920;2023-07-31T10:55:31;99801.31;;;19.90;100.00
13968;BME280;39536;52.198;9.920;2023-07-31T10:58:05;99790.13;;;19.98;100.00
13968;BME280;39536;52.198;9.920;2023-07-31T11:00:32;99794.19;;;20.23;100.00
13968;BME280;39536;52.198;9.920;2023-07-31T11:03:02;99792.63;;;20.20;100.00
13968;BME280;39536;52.198;9.920;2023-07-31T11:05:59;99783.53;;;20.13;100.00
13968;BME280;39536;52.198;9.920;2023-07-31T11:08:29;99788.13;;;20.11;100.00
13968;BME280;39536;52.198;9.920;2023-07-31T11:11:07;99780.50;;;19.97;100.00
13968;BME280;39536;52.198;9.920;2023-07-31T11:13:40;99782.75;;;20.01;100.00
13968;BME280;39536;52.198;9.920;2023-07-31T11:16:07;99790.06;;;19.88;100.00
13968;BME280;39536;52.198;9.920;2023-07-31T11:18:35;99784.06;;;19.86;100.00
13968;BME280;39536;52.198;9.920;2023-07-31T11:21:04;99793.50;;;19.68;100.00
13968;BME280;39536;52.198;9.920;2023-07-31T11:23:31;99779.81;;;19.63;100.00
13968;BME280;39536;52.198;9.920;2023-07-31T11:26:00;99790.84;;;19.68;100.00
13968;BME280;39536;52.198;9.920;2023-07-31T11:28:31;99783.75;;;19.68;100.00
13968;BME280;39536;52.198;9.920;2023-07-31T11:30:59;99784.38;;;19.60;100.00
13968;BME280;39536;52.198;9.920;2023-07-31T11:33:26;99781.47;;;19.64;100.00
13968;BME280;39536;52.198;9.920;2023-07-31T11:35:54;99786.16;;;19.71;100.00
13968;BME280;39536;52.198;9.920;2023-07-31T11:38:24;99780.88;;;19.71;100.00
13968;BME280;39536;52.198;9.920;2023-07-31T11:40:51;99785.81;;;19.65;100.00
13968;BME280;39536;52.198;9.920;2023-07-31T11:43:19;99775.47;;;19.73;100.00
13968;BME280;39536;52.198;9.920;2023-07-31T11:45:47;99770.75;;;19.76;100.00
13968;BME280;39536;52.198;9.920;2023-07-31T11:48:21;99770.06;;;19.95;100.00
13968;BME280;39536;52.198;9.920;2023-07-31T11:50:50;99766.75;;;20.03;100.00
13968;BME280;39536;52.198;9.920;2023-07-31T11:53:21;99767.41;;;19.95;100.00
13968;BME280;39536;52.198;9.920;2023-07-31T11:55:49;99769.53;;;20.01;100.00
13968;BME280;39536;52.198;9.920;2023-07-31T11:58:17;99763.84;;;20.06;100.00
13968;BME280;39536;52.198;9.920;2023-07-31T12:00:45;99753.94;;;20.19;100.00
13968;BME280;39536;52.198;9.920;2023-07-31T12:03:12;99746.19;;;20.37;100.00
13968;BME280;39536;52.198;9.920;2023-07-31T12:05:39;99742.00;;;20.25;100.00
13968;BME280;39536;52.198;9.920;2023-07-31T12:08:10;99752.47;;;20.36;100.00
13968;BME280;39536;52.198;9.920;2023-07-31T12:10:39;99744.91;;;20.22;100.00
13968;BME280;39536;52.198;9.920;2023-07-31T12:13:08;99750.50;;;20.28;100.00
13968;BME280;39536;52.198;9.920;2023-07-31T12:15:39;99753.69;;;20.22;100.00
13968;BME280;39536;52.198;9.920;2023-07-31T12:18:09;99748.84;;;20.06;100.00
13968;BME280;39536;52.198;9.920;2023-07-31T12:20:40;99757.16;;;19.81;100.00
13968;BME280;39536;52.198;9.920;2023-07-31T12:23:07;99752.13;;;19.78;100.00
13968;BME280;39536;52.198;9.920;2023-07-31T12:25:34;99753.59;;;19.71;100.00
13968;BME280;39536;52.198;9.920;2023-07-31T12:28:06;99760.31;;;19.75;100.00
13968;BME280;39536;52.198;9.920;2023-07-31T12:30:37;99754.94;;;19.65;100.00
13968;BME280;39536;52.198;9.920;2023-07-31T12:33:05;99749.84;;;19.84;100.00
13968;BME280;39536;52.198;9.920;2023-07-31T12:35:36;99756.19;;;20.03;100.00
13968;BME280;39536;52.198;9.920;2023-07-31T12:38:03;99751.75;;;19.82;100.00
13968;BME280;39536;52.198;9.920;2023-07-31T12:40:30;99752.88;;;19.69;100.00
13968;BME280;39536;52.198;9.920;2023-07-31T12:42:56;99753.09;;;19.45;100.00
13968;BME280;39536;52.198;9.920;2023-07-31T12:45:24;99748.47;;;19.58;100.00
13968;BME280;39536;52.198;9.920;2023-07-31T12:47:52;99755.69;;;19.56;100.00
13968;BME280;39536;52.198;9.920;2023-07-31T12:50:18;99756.09;;;19.40;100.00
13968;BME280;39536;52.198;9.920;2023-07-31T12:52:45;99759.63;;;19.29;100.00